92G weather

Midlakes Airport
Gorham, New York, United States

Public forecast

Using degrees Fahrenheit for public forecast. Weather courtesy of forecast.io.

Closest aviation weather report (METAR) to Midlakes Airport

Closest report is Penn Yan Airport, 12.5 nm (23.1 km) SSE. Retrieved 2019/10/23 02:53 UTC (56 minutes ago):

KPEO 230253Z AUTO 20004KT 10SM SCT030 SCT036 BKN055 11/09 A2983 RMK AO2 SLP101 T01060094 53015

Closest aviation forecast (TAF) to Midlakes Airport

Closest forecast is Greater Rochester International Airport, 27.6 nm (51.1 km) NW. Retrieved 2019-10-23 00:30 UTC (3 hours ago):

TAF KROC 222328Z 2300/2324 19007KT P6SM BKN060 BKN100 FM230200 22006KT P6SM -SHRA BKN050 FM230400 25006KT P6SM BKN080 FM231400 23011G18KT P6SM BKN040 FM231700 24016G25KT P6SM BKN045 FM231900 24018G28KT P6SM BKN070